sensor_id;sensor_type;location;lat;lon;timestamp;pressure;altitude;pressure_sealevel;temperature;humidity
64544;BME280;50936;51.660;5.616;2023-05-22T00:00:18;101124.78;;;17.29;100.00
64544;BME280;50936;51.660;5.616;2023-05-22T00:02:46;101124.97;;;17.27;100.00
64544;BME280;50936;51.660;5.616;2023-05-22T00:05:14;101124.97;;;17.27;100.00
64544;BME280;50936;51.660;5.616;2023-05-22T00:07:41;101124.22;;;17.25;100.00
64544;BME280;50936;51.660;5.616;2023-05-22T00:10:09;101128.09;;;17.23;100.00
64544;BME280;50936;51.660;5.616;2023-05-22T00:12:36;101133.25;;;17.16;100.00
64544;BME280;50936;51.660;5.616;2023-05-22T00:15:04;101133.56;;;17.13;100.00
64544;BME280;50936;51.660;5.616;2023-05-22T00:17:31;101141.31;;;17.08;100.00
64544;BME280;50936;51.660;5.616;2023-05-22T00:19:59;101139.16;;;17.02;100.00
64544;BME280;50936;51.660;5.616;2023-05-22T00:22:33;101138.41;;;17.00;100.00
64544;BME280;50936;51.660;5.616;2023-05-22T00:25:04;101137.44;;;17.01;100.00
64544;BME280;50936;51.660;5.616;2023-05-22T00:27:32;101134.13;;;16.97;100.00
64544;BME280;50936;51.660;5.616;2023-05-22T00:29:59;101136.97;;;16.96;100.00
64544;BME280;50936;51.660;5.616;2023-05-22T00:32:27;101136.41;;;16.92;100.00
64544;BME280;50936;51.660;5.616;2023-05-22T00:34:54;101125.78;;;16.89;100.00
64544;BME280;50936;51.660;5.616;2023-05-22T00:37:21;101133.53;;;16.84;100.00
64544;BME280;50936;51.660;5.616;2023-05-22T00:39:48;101133.75;;;16.81;100.00
64544;BME280;50936;51.660;5.616;2023-05-22T00:42:16;101127.72;;;16.77;100.00
64544;BME280;50936;51.660;5.616;2023-05-22T00:44:43;101117.09;;;16.74;100.00
64544;BME280;50936;51.660;5.616;2023-05-22T00:47:11;101120.84;;;16.73;100.00
64544;BME280;50936;51.660;5.616;2023-05-22T00:49:38;101128.16;;;16.72;100.00
64544;BME280;50936;51.660;5.616;2023-05-22T00:52:07;101123.69;;;16.71;100.00
64544;BME280;50936;51.660;5.616;2023-05-22T00:54:35;101120.13;;;16.71;100.00
64544;BME280;50936;51.660;5.616;2023-05-22T00:57:03;101119.97;;;16.72;100.00
64544;BME280;50936;51.660;5.616;2023-05-22T00:59:31;101115.50;;;16.71;100.00
64544;BME280;50936;51.660;5.616;2023-05-22T01:01:58;101117.66;;;16.68;100.00
64544;BME280;50936;51.660;5.616;2023-05-22T01:04:25;101109.03;;;16.63;100.00
64544;BME280;50936;51.660;5.616;2023-05-22T01:06:53;101111.59;;;16.54;100.00
64544;BME280;50936;51.660;5.616;2023-05-22T01:09:20;101113.03;;;16.49;100.00
64544;BME280;50936;51.660;5.616;2023-05-22T01:14:54;101108.09;;;16.43;100.00
64544;BME280;50936;51.660;5.616;2023-05-22T01:20:39;101107.81;;;16.36;100.00
64544;BME280;50936;51.660;5.616;2023-05-22T01:26:26;101097.16;;;16.33;100.00
64544;BME280;50936;51.660;5.616;2023-05-22T01:32:36;101096.00;;;16.26;100.00
64544;BME280;50936;51.660;5.616;2023-05-22T01:35:07;101094.56;;;16.22;100.00
64544;BME280;50936;51.660;5.616;2023-05-22T01:37:37;101101.72;;;16.23;100.00
64544;BME280;50936;51.660;5.616;2023-05-22T01:40:06;101098.84;;;16.24;100.00
64544;BME280;50936;51.660;5.616;2023-05-22T01:42:36;101100.00;;;16.22;100.00
64544;BME280;50936;51.660;5.616;2023-05-22T01:45:09;101101.00;;;16.21;100.00
64544;BME280;50936;51.660;5.616;2023-05-22T01:47:37;101098.69;;;16.16;100.00
64544;BME280;50936;51.660;5.616;2023-05-22T01:50:05;101098.81;;;16.14;100.00
64544;BME280;50936;51.660;5.616;2023-05-22T01:52:55;101098.63;;;16.06;100.00
64544;BME280;50936;51.660;5.616;2023-05-22T01:55:35;101089.81;;;15.93;100.00
64544;BME280;50936;51.660;5.616;2023-05-22T01:58:39;101095.22;;;15.83;100.00
64544;BME280;50936;51.660;5.616;2023-05-22T02:01:16;101092.63;;;15.82;100.00
64544;BME280;50936;51.660;5.616;2023-05-22T02:03:47;101098.63;;;15.75;100.00
64544;BME280;50936;51.660;5.616;2023-05-22T02:06:24;101092.22;;;15.65;100.00
64544;BME280;50936;51.660;5.616;2023-05-22T02:08:54;101087.31;;;15.59;100.00
64544;BME280;50936;51.660;5.616;2023-05-22T02:11:23;101084.13;;;15.54;100.00
64544;BME280;50936;51.660;5.616;2023-05-22T02:13:55;101087.38;;;15.48;100.00
64544;BME280;50936;51.660;5.616;2023-05-22T02:16:23;101092.34;;;15.43;100.00
64544;BME280;50936;51.660;5.616;2023-05-22T02:18:50;101091.03;;;15.37;100.00
64544;BME280;50936;51.660;5.616;2023-05-22T02:21:21;101091.53;;;15.31;100.00
64544;BME280;50936;51.660;5.616;2023-05-22T02:23:48;101097.38;;;15.26;100.00
64544;BME280;50936;51.660;5.616;2023-05-22T02:26:16;101091.47;;;15.21;100.00
64544;BME280;50936;51.660;5.616;2023-05-22T02:28:43;101085.28;;;15.19;100.00
64544;BME280;50936;51.660;5.616;2023-05-22T02:31:10;101080.97;;;15.16;100.00
64544;BME280;50936;51.660;5.616;2023-05-22T02:33:38;101084.69;;;15.15;100.00
64544;BME280;50936;51.660;5.616;2023-05-22T02:36:06;101080.22;;;15.14;100.00
64544;BME280;50936;51.660;5.616;2023-05-22T02:38:36;101075.94;;;15.12;100.00
64544;BME280;50936;51.660;5.616;2023-05-22T02:41:03;101077.06;;;15.09;100.00
64544;BME280;50936;51.660;5.616;2023-05-22T02:43:31;101078.91;;;15.09;100.00
64544;BME280;50936;51.660;5.616;2023-05-22T02:45:58;101074.00;;;15.02;100.00
64544;BME280;50936;51.660;5.616;2023-05-22T02:48:25;101076.97;;;14.99;100.00
64544;BME280;50936;51.660;5.616;2023-05-22T02:50:54;101076.22;;;14.97;100.00
64544;BME280;50936;51.660;5.616;2023-05-22T02:53:21;101071.31;;;14.91;100.00
64544;BME280;50936;51.660;5.616;2023-05-22T02:55:48;101062.44;;;14.89;100.00
64544;BME280;50936;51.660;5.616;2023-05-22T02:58:15;101068.13;;;14.86;100.00
64544;BME280;50936;51.660;5.616;2023-05-22T03:00:43;101070.09;;;14.84;100.00
64544;BME280;50936;51.660;5.616;2023-05-22T03:03:10;101061.47;;;14.79;100.00
64544;BME280;50936;51.660;5.616;2023-05-22T03:05:40;101065.44;;;14.75;100.00
64544;BME280;50936;51.660;5.616;2023-05-22T03:08:07;101065.69;;;14.72;100.00
64544;BME280;50936;51.660;5.616;2023-05-22T03:10:34;101072.25;;;14.69;100.00
64544;BME280;50936;51.660;5.616;2023-05-22T03:13:01;101064.47;;;14.65;100.00
64544;BME280;50936;51.660;5.616;2023-05-22T03:15:28;101061.88;;;14.63;100.00
64544;BME280;50936;51.660;5.616;2023-05-22T03:18:01;101066.69;;;14.59;100.00
64544;BME280;50936;51.660;5.616;2023-05-22T03:20:28;101066.94;;;14.56;100.00
64544;BME280;50936;51.660;5.616;2023-05-22T03:22:55;101060.78;;;14.54;100.00
64544;BME280;50936;51.660;5.616;2023-05-22T03:25:22;101054.56;;;14.52;100.00
64544;BME280;50936;51.660;5.616;2023-05-22T03:27:49;101055.34;;;14.54;100.00
64544;BME280;50936;51.660;5.616;2023-05-22T03:30:16;101055.72;;;14.50;100.00
64544;BME280;50936;51.660;5.616;2023-05-22T03:32:54;101055.81;;;14.48;100.00
64544;BME280;50936;51.660;5.616;2023-05-22T03:35:21;101050.38;;;14.48;100.00
64544;BME280;50936;51.660;5.616;2023-05-22T03:37:50;101052.25;;;14.48;100.00
64544;BME280;50936;51.660;5.616;2023-05-22T03:40:17;101057.56;;;14.49;100.00
64544;BME280;50936;51.660;5.616;2023-05-22T03:42:44;101047.69;;;14.48;100.00
64544;BME280;50936;51.660;5.616;2023-05-22T03:45:11;101052.75;;;14.53;100.00
64544;BME280;50936;51.660;5.616;2023-05-22T03:47:38;101055.94;;;14.58;100.00
64544;BME280;50936;51.660;5.616;2023-05-22T03:50:05;101059.28;;;14.61;100.00
64544;BME280;50936;51.660;5.616;2023-05-22T03:52:33;101059.28;;;14.61;100.00
64544;BME280;50936;51.660;5.616;2023-05-22T03:54:59;101053.84;;;14.61;100.00
64544;BME280;50936;51.660;5.616;2023-05-22T03:57:27;101055.59;;;14.62;100.00
64544;BME280;50936;51.660;5.616;2023-05-22T03:59:54;101051.59;;;14.67;100.00
64544;BME280;50936;51.660;5.616;2023-05-22T04:02:23;101055.94;;;14.69;100.00
64544;BME280;50936;51.660;5.616;2023-05-22T04:04:51;101056.81;;;14.70;100.00
64544;BME280;50936;51.660;5.616;2023-05-22T04:07:18;101058.50;;;14.71;100.00
64544;BME280;50936;51.660;5.616;2023-05-22T04:09:45;101062.13;;;14.71;100.00
64544;BME280;50936;51.660;5.616;2023-05-22T04:12:12;101056.69;;;14.71;100.00
64544;BME280;50936;51.660;5.616;2023-05-22T04:14:41;101058.50;;;14.71;100.00
64544;BME280;50936;51.660;5.616;2023-05-22T04:17:08;101067.78;;;14.68;100.00
64544;BME280;50936;51.660;5.616;2023-05-22T04:19:37;101063.94;;;14.71;100.00
64544;BME280;50936;51.660;5.616;2023-05-22T04:22:03;101061.22;;;14.71;100.00
64544;BME280;50936;51.660;5.616;2023-05-22T04:24:30;101071.13;;;14.72;100.00
64544;BME280;50936;51.660;5.616;2023-05-22T04:26:58;101063.94;;;14.71;100.00
64544;BME280;50936;51.660;5.616;2023-05-22T04:29:25;101071.38;;;14.69;100.00
64544;BME280;50936;51.660;5.616;2023-05-22T04:31:54;101070.28;;;14.71;100.00
64544;BME280;50936;51.660;5.616;2023-05-22T04:34:21;101065.69;;;14.72;100.00
64544;BME280;50936;51.660;5.616;2023-05-22T04:36:47;101068.91;;;14.77;100.00
64544;BME280;50936;51.660;5.616;2023-05-22T04:39:16;101075.78;;;14.81;100.00
64544;BME280;50936;51.660;5.616;2023-05-22T04:41:43;101079.53;;;14.80;100.00
64544;BME280;50936;51.660;5.616;2023-05-22T04:44:11;101082.97;;;14.82;100.00
64544;BME280;50936;51.660;5.616;2023-05-22T04:46:40;101076.41;;;14.85;100.00
64544;BME280;50936;51.660;5.616;2023-05-22T04:49:08;101077.13;;;14.87;100.00
64544;BME280;50936;51.660;5.616;2023-05-22T04:51:35;101077.00;;;14.88;100.00
64544;BME280;50936;51.660;5.616;2023-05-22T04:54:02;101077.00;;;14.88;100.00
64544;BME280;50936;51.660;5.616;2023-05-22T04:56:29;101087.88;;;14.88;100.00
64544;BME280;50936;51.660;5.616;2023-05-22T04:59:03;101088.88;;;14.87;100.00
64544;BME280;50936;51.660;5.616;2023-05-22T05:01:32;101083.56;;;14.86;100.00
64544;BME280;50936;51.660;5.616;2023-05-22T05:04:01;101087.41;;;14.83;100.00
64544;BME280;50936;51.660;5.616;2023-05-22T05:06:29;101090.41;;;14.80;100.00
64544;BME280;50936;51.660;5.616;2023-05-22T05:08:56;101091.50;;;14.77;100.00
64544;BME280;50936;51.660;5.616;2023-05-22T05:11:25;101086.91;;;14.78;100.00
64544;BME280;50936;51.660;5.616;2023-05-22T05:13:52;101094.09;;;14.79;100.00
64544;BME280;50936;51.660;5.616;2023-05-22T05:16:19;101088.91;;;14.76;100.00
64544;BME280;50936;51.660;5.616;2023-05-22T05:18:50;101093.47;;;14.75;100.00
64544;BME280;50936;51.660;5.616;2023-05-22T05:21:21;101095.06;;;14.78;100.00
64544;BME280;50936;51.660;5.616;2023-05-22T05:23:48;101097.78;;;14.78;100.00
64544;BME280;50936;51.660;5.616;2023-05-22T05:26:15;101105.22;;;14.76;100.00
64544;BME280;50936;51.660;5.616;2023-05-22T05:28:52;101102.97;;;14.81;100.00
64544;BME280;50936;51.660;5.616;2023-05-22T05:31:19;101099.91;;;14.86;100.00
64544;BME280;50936;51.660;5.616;2023-05-22T05:33:57;101099.00;;;14.85;100.00
64544;BME280;50936;51.660;5.616;2023-05-22T05:36:29;101099.00;;;14.85;100.00
64544;BME280;50936;51.660;5.616;2023-05-22T05:38:56;101100.75;;;14.86;100.00
64544;BME280;50936;51.660;5.616;2023-05-22T05:41:25;101100.75;;;14.86;100.00
64544;BME280;50936;51.660;5.616;2023-05-22T05:44:01;101101.00;;;14.83;100.00
64544;BME280;50936;51.660;5.616;2023-05-22T05:46:30;101111.13;;;14.81;100.00
64544;BME280;50936;51.660;5.616;2023-05-22T05:48:58;101102.13;;;14.80;100.00
64544;BME280;50936;51.660;5.616;2023-05-22T05:51:26;101115.59;;;14.82;100.00
64544;BME280;50936;51.660;5.616;2023-05-22T05:53:53;101128.91;;;14.85;100.00
64544;BME280;50936;51.660;5.616;2023-05-22T05:56:20;101125.94;;;14.88;100.00
64544;BME280;50936;51.660;5.616;2023-05-22T05:58:47;101129.66;;;14.87;100.00
64544;BME280;50936;51.660;5.616;2023-05-22T06:01:45;101124.22;;;14.87;100.00
64544;BME280;50936;51.660;5.616;2023-05-22T06:04:19;101119.91;;;14.85;100.00
64544;BME280;50936;51.660;5.616;2023-05-22T06:06:48;101113.34;;;14.87;100.00
64544;BME280;50936;51.660;5.616;2023-05-22T06:09:44;101124.06;;;15.00;100.00
64544;BME280;50936;51.660;5.616;2023-05-22T06:12:32;101119.81;;;15.07;100.00
64544;BME280;50936;51.660;5.616;2023-05-22T06:14:59;101123.16;;;15.11;100.00
64544;BME280;50936;51.660;5.616;2023-05-22T06:17:26;101120.66;;;15.19;100.00
64544;BME280;50936;51.660;5.616;2023-05-22T06:19:53;101126.31;;;15.27;100.00
64544;BME280;50936;51.660;5.616;2023-05-22T06:22:20;101128.25;;;15.36;100.00
64544;BME280;50936;51.660;5.616;2023-05-22T06:24:49;101131.06;;;15.46;100.00
64544;BME280;50936;51.660;5.616;2023-05-22T06:27:20;101128.88;;;15.61;100.00
64544;BME280;50936;51.660;5.616;2023-05-22T06:29:53;101128.34;;;15.67;100.00
64544;BME280;50936;51.660;5.616;2023-05-22T06:32:23;101134.25;;;15.72;100.00
64544;BME280;50936;51.660;5.616;2023-05-22T06:34:52;101131.53;;;15.72;100.00
64544;BME280;50936;51.660;5.616;2023-05-22T06:37:20;101127.31;;;15.80;100.00
64544;BME280;50936;51.660;5.616;2023-05-22T06:39:47;101124.63;;;15.89;100.00
64544;BME280;50936;51.660;5.616;2023-05-22T06:42:24;101126.84;;;15.95;100.00
64544;BME280;50936;51.660;5.616;2023-05-22T06:45:20;101137.53;;;16.08;100.00
64544;BME280;50936;51.660;5.616;2023-05-22T06:48:04;101141.13;;;16.19;100.00
64544;BME280;50936;51.660;5.616;2023-05-22T06:50:36;101149.22;;;16.30;100.00
64544;BME280;50936;51.660;5.616;2023-05-22T06:53:03;101148.13;;;16.42;100.00
64544;BME280;50936;51.660;5.616;2023-05-22T06:55:30;101141.72;;;16.53;100.00
64544;BME280;50936;51.660;5.616;2023-05-22T06:58:06;101149.22;;;16.61;100.00
64544;BME280;50936;51.660;5.616;2023-05-22T07:00:34;101155.84;;;16.68;100.00
64544;BME280;50936;51.660;5.616;2023-05-22T07:03:13;101161.31;;;16.78;100.00
64544;BME280;50936;51.660;5.616;2023-05-22T07:06:03;101158.75;;;16.76;100.00
64544;BME280;50936;51.660;5.616;2023-05-22T07:08:31;101157.59;;;16.79;100.00
64544;BME280;50936;51.660;5.616;2023-05-22T07:10:59;101160.81;;;16.93;100.00
64544;BME280;50936;51.660;5.616;2023-05-22T07:13:28;101163.16;;;17.08;100.00
64544;BME280;50936;51.660;5.616;2023-05-22T07:15:58;101167.47;;;17.20;100.00
64544;BME280;50936;51.660;5.616;2023-05-22T07:18:25;101166.91;;;17.36;100.00
64544;BME280;50936;51.660;5.616;2023-05-22T07:20:52;101159.72;;;17.55;100.00
64544;BME280;50936;51.660;5.616;2023-05-22T07:23:21;101161.44;;;17.65;100.00
64544;BME280;50936;51.660;5.616;2023-05-22T07:25:51;101172.38;;;17.75;100.00
64544;BME280;50936;51.660;5.616;2023-05-22T07:28:21;101176.69;;;17.87;100.00
64544;BME280;50936;51.660;5.616;2023-05-22T07:31:10;101172.63;;;18.01;100.00
64544;BME280;50936;51.660;5.616;2023-05-22T07:33:38;101169.97;;;18.29;100.00
64544;BME280;50936;51.660;5.616;2023-05-22T07:36:05;101174.88;;;18.63;100.00
64544;BME280;50936;51.660;5.616;2023-05-22T07:38:33;101183.41;;;18.88;100.00
64544;BME280;50936;51.660;5.616;2023-05-22T07:41:01;101176.22;;;19.14;100.00
64544;BME280;50936;51.660;5.616;2023-05-22T07:43:32;101179.34;;;19.55;100.00
64544;BME280;50936;51.660;5.616;2023-05-22T07:45:59;101180.44;;;19.98;100.00
64544;BME280;50936;51.660;5.616;2023-05-22T07:48:32;101179.00;;;20.47;100.00
64544;BME280;50936;51.660;5.616;2023-05-22T07:50:59;101183.31;;;20.75;100.00
64544;BME280;50936;51.660;5.616;2023-05-22T07:53:26;101184.75;;;21.04;100.00
64544;BME280;50936;51.660;5.616;2023-05-22T07:55:56;101188.59;;;21.28;100.00
64544;BME280;50936;51.660;5.616;2023-05-22T07:58:24;101192.47;;;21.60;100.00
64544;BME280;50936;51.660;5.616;2023-05-22T08:00:51;101192.47;;;21.60;100.00
64544;BME280;50936;51.660;5.616;2023-05-22T08:03:18;101185.97;;;21.85;100.00
64544;BME280;50936;51.660;5.616;2023-05-22T08:05:48;101192.28;;;21.78;100.00
64544;BME280;50936;51.660;5.616;2023-05-22T08:08:15;101188.00;;;21.91;100.00
64544;BME280;50936;51.660;5.616;2023-05-22T08:10:42;101184.16;;;22.25;100.00
64544;BME280;50936;51.660;5.616;2023-05-22T08:13:28;101187.25;;;22.47;100.00
64544;BME280;50936;51.660;5.616;2023-05-22T08:15:55;101184.50;;;22.47;99.88
64544;BME280;50936;51.660;5.616;2023-05-22T08:18:27;101185.97;;;22.74;100.00
64544;BME280;50936;51.660;5.616;2023-05-22T08:20:55;101184.31;;;22.96;97.70
64544;BME280;50936;51.660;5.616;2023-05-22T08:23:22;101181.69;;;23.11;95.37
64544;BME280;50936;51.660;5.616;2023-05-22T08:25:49;101179.25;;;22.77;97.23
64544;BME280;50936;51.660;5.616;2023-05-22T08:28:16;101177.03;;;22.72;99.72
64544;BME280;50936;51.660;5.616;2023-05-22T08:30:43;101186.38;;;22.94;98.42
64544;BME280;50936;51.660;5.616;2023-05-22T08:33:10;101181.09;;;23.24;98.16
64544;BME280;50936;51.660;5.616;2023-05-22T08:35:38;101176.56;;;23.31;95.40
64544;BME280;50936;51.660;5.616;2023-05-22T08:38:05;101180.19;;;23.32;94.65
64544;BME280;50936;51.660;5.616;2023-05-22T08:40:36;101180.81;;;23.11;94.89
64544;BME280;50936;51.660;5.616;2023-05-22T08:43:05;101177.75;;;23.05;96.48
64544;BME280;50936;51.660;5.616;2023-05-22T08:45:33;101182.91;;;23.09;97.23
64544;BME280;50936;51.660;5.616;2023-05-22T08:48:04;101183.75;;;23.09;95.23
64544;BME280;50936;51.660;5.616;2023-05-22T08:50:33;101180.03;;;22.94;96.22
64544;BME280;50936;51.660;5.616;2023-05-22T08:53:07;101183.97;;;22.99;96.94
64544;BME280;50936;51.660;5.616;2023-05-22T08:55:37;101185.66;;;23.09;96.57
64544;BME280;50936;51.660;5.616;2023-05-22T08:58:04;101180.16;;;23.00;96.25
64544;BME280;50936;51.660;5.616;2023-05-22T09:00:32;101187.81;;;22.82;98.53
64544;BME280;50936;51.660;5.616;2023-05-22T09:02:59;101190.16;;;22.93;99.04
64544;BME280;50936;51.660;5.616;2023-05-22T09:05:26;101186.03;;;22.97;96.66
64544;BME280;50936;51.660;5.616;2023-05-22T09:07:53;101186.22;;;22.96;98.05
64544;BME280;50936;51.660;5.616;2023-05-22T09:10:28;101187.72;;;22.98;97.08
64544;BME280;50936;51.660;5.616;2023-05-22T09:13:03;101193.09;;;23.31;96.32
64544;BME280;50936;51.660;5.616;2023-05-22T09:15:34;101193.34;;;23.68;97.34
64544;BME280;50936;51.660;5.616;2023-05-22T09:18:03;101186.09;;;23.98;94.97
64544;BME280;50936;51.660;5.616;2023-05-22T09:20:35;101194.78;;;24.25;90.43
64544;BME280;50936;51.660;5.616;2023-05-22T09:23:14;101191.72;;;24.19;89.05
64544;BME280;50936;51.660;5.616;2023-05-22T09:25:44;101186.59;;;24.16;90.98
64544;BME280;50936;51.660;5.616;2023-05-22T09:28:12;101185.50;;;24.02;89.35
64544;BME280;50936;51.660;5.616;2023-05-22T09:30:39;101178.66;;;23.52;91.90
64544;BME280;50936;51.660;5.616;2023-05-22T09:33:11;101183.50;;;23.19;95.03
64544;BME280;50936;51.660;5.616;2023-05-22T09:35:39;101182.47;;;23.28;96.14
64544;BME280;50936;51.660;5.616;2023-05-22T09:38:07;101175.56;;;23.24;95.01
64544;BME280;50936;51.660;5.616;2023-05-22T09:40:38;101173.13;;;23.29;96.61
64544;BME280;50936;51.660;5.616;2023-05-22T09:43:10;101178.09;;;23.57;95.15
64544;BME280;50936;51.660;5.616;2023-05-22T09:45:38;101173.41;;;23.89;94.06
64544;BME280;50936;51.660;5.616;2023-05-22T09:48:05;101177.66;;;24.14;92.66
64544;BME280;50936;51.660;5.616;2023-05-22T09:50:37;101165.84;;;24.20;89.97
64544;BME280;50936;51.660;5.616;2023-05-22T09:53:08;101172.50;;;24.11;91.42
64544;BME280;50936;51.660;5.616;2023-05-22T09:55:37;101174.41;;;24.26;91.62
64544;BME280;50936;51.660;5.616;2023-05-22T09:58:05;101168.63;;;24.50;90.13
64544;BME280;50936;51.660;5.616;2023-05-22T10:00:35;101173.59;;;24.55;88.57
64544;BME280;50936;51.660;5.616;2023-05-22T10:03:12;101170.41;;;24.43;89.25
64544;BME280;50936;51.660;5.616;2023-05-22T10:05:49;101168.56;;;24.58;89.55
64544;BME280;50936;51.660;5.616;2023-05-22T10:08:24;101172.72;;;24.84;87.46
64544;BME280;50936;51.660;5.616;2023-05-22T10:10:54;101172.88;;;24.97;85.54
64544;BME280;50936;51.660;5.616;2023-05-22T10:13:23;101178.97;;;25.08;84.92
64544;BME280;50936;51.660;5.616;2023-05-22T10:15:52;101173.59;;;25.21;83.53
64544;BME280;50936;51.660;5.616;2023-05-22T10:18:20;101175.06;;;25.39;84.69
64544;BME280;50936;51.660;5.616;2023-05-22T10:20:48;101177.47;;;25.63;83.65
64544;BME280;50936;51.660;5.616;2023-05-22T10:23:16;101178.84;;;25.74;81.01
64544;BME280;50936;51.660;5.616;2023-05-22T10:25:47;101171.28;;;25.83;79.81
64544;BME280;50936;51.660;5.616;2023-05-22T10:28:23;101168.34;;;25.91;79.61
64544;BME280;50936;51.660;5.616;2023-05-22T10:31:00;101174.03;;;25.83;78.85
64544;BME280;50936;51.660;5.616;2023-05-22T10:34:09;101165.22;;;25.72;79.46
64544;BME280;50936;51.660;5.616;2023-05-22T10:37:41;101170.00;;;25.85;80.29
64544;BME280;50936;51.660;5.616;2023-05-22T10:42:36;101159.94;;;25.99;80.88
64544;BME280;50936;51.660;5.616;2023-05-22T10:45:07;101155.75;;;26.10;79.44
64544;BME280;50936;51.660;5.616;2023-05-22T10:47:35;101159.69;;;26.22;78.68
64544;BME280;50936;51.660;5.616;2023-05-22T10:50:07;101157.03;;;26.42;76.89
64544;BME280;50936;51.660;5.616;2023-05-22T10:52:37;101148.03;;;26.62;76.07
64544;BME280;50936;51.660;5.616;2023-05-22T10:55:09;101151.94;;;26.81;75.61
64544;BME280;50936;51.660;5.616;2023-05-22T10:57:37;101158.38;;;26.88;74.68
64544;BME280;50936;51.660;5.616;2023-05-22T11:00:14;101156.28;;;26.97;72.87
64544;BME280;50936;51.660;5.616;2023-05-22T11:02:46;101152.78;;;26.81;71.60
64544;BME280;50936;51.660;5.616;2023-05-22T11:07:47;101150.22;;;26.73;72.68
64544;BME280;50936;51.660;5.616;2023-05-22T11:10:24;101149.38;;;26.73;74.52
64544;BME280;50936;51.660;5.616;2023-05-22T11:13:10;101156.28;;;26.97;75.23
64544;BME280;50936;51.660;5.616;2023-05-22T11:15:42;101155.97;;;27.26;71.52
64544;BME280;50936;51.660;5.616;2023-05-22T11:18:11;101149.41;;;27.41;72.43
64544;BME280;50936;51.660;5.616;2023-05-22T11:20:40;101148.28;;;27.29;71.66
64544;BME280;50936;51.660;5.616;2023-05-22T11:23:09;101153.03;;;26.86;71.89
64544;BME280;50936;51.660;5.616;2023-05-22T11:25:39;101140.81;;;26.67;72.83
64544;BME280;50936;51.660;5.616;2023-05-22T11:28:07;101146.84;;;26.84;72.90
64544;BME280;50936;51.660;5.616;2023-05-22T11:30:36;101151.19;;;27.07;72.25
64544;BME280;50936;51.660;5.616;2023-05-22T11:33:04;101143.00;;;27.47;74.07
64544;BME280;50936;51.660;5.616;2023-05-22T11:35:32;101149.84;;;27.78;69.62
64544;BME280;50936;51.660;5.616;2023-05-22T11:38:03;101143.25;;;27.79;67.98
64544;BME280;50936;51.660;5.616;2023-05-22T11:40:31;101137.44;;;27.47;70.69
64544;BME280;50936;51.660;5.616;2023-05-22T11:42:58;101137.38;;;27.20;70.84
64544;BME280;50936;51.660;5.616;2023-05-22T11:45:25;101144.03;;;27.33;72.05
64544;BME280;50936;51.660;5.616;2023-05-22T11:47:52;101148.34;;;27.69;69.87
64544;BME280;50936;51.660;5.616;2023-05-22T11:50:20;101140.91;;;28.16;68.02
64544;BME280;50936;51.660;5.616;2023-05-22T11:53:06;101138.09;;;28.29;66.81
64544;BME280;50936;51.660;5.616;2023-05-22T11:55:33;101143.88;;;27.81;66.05
64544;BME280;50936;51.660;5.616;2023-05-22T11:58:01;101139.78;;;27.37;68.30
64544;BME280;50936;51.660;5.616;2023-05-22T12:00:30;101141.09;;;27.68;69.72
64544;BME280;50936;51.660;5.616;2023-05-22T12:02:57;101132.59;;;28.02;67.00
64544;BME280;50936;51.660;5.616;2023-05-22T12:05:24;101136.44;;;28.08;66.49
64544;BME280;50936;51.660;5.616;2023-05-22T12:07:51;101141.28;;;28.26;66.86
64544;BME280;50936;51.660;5.616;2023-05-22T12:10:19;101131.03;;;28.33;66.23
64544;BME280;50936;51.660;5.616;2023-05-22T12:12:46;101130.19;;;28.26;66.83
64544;BME280;50936;51.660;5.616;2023-05-22T12:15:17;101130.59;;;28.30;64.98
64544;BME280;50936;51.660;5.616;2023-05-22T12:17:45;101126.72;;;28.44;64.73
64544;BME280;50936;51.660;5.616;2023-05-22T12:20:13;101126.63;;;28.77;66.02
64544;BME280;50936;51.660;5.616;2023-05-22T12:22:40;101128.84;;;29.07;63.08
64544;BME280;50936;51.660;5.616;2023-05-22T12:25:15;101132.09;;;28.97;61.33
64544;BME280;50936;51.660;5.616;2023-05-22T12:27:43;101141.75;;;28.95;62.19
64544;BME280;50936;51.660;5.616;2023-05-22T12:30:12;101136.63;;;28.92;61.87
64544;BME280;50936;51.660;5.616;2023-05-22T12:32:39;101134.53;;;28.80;63.10
64544;BME280;50936;51.660;5.616;2023-05-22T12:35:14;101131.44;;;29.02;61.50
64544;BME280;50936;51.660;5.616;2023-05-22T12:37:49;101125.56;;;28.78;60.65
64544;BME280;50936;51.660;5.616;2023-05-22T12:40:17;101117.34;;;28.38;62.51
64544;BME280;50936;51.660;5.616;2023-05-22T12:42:44;101119.28;;;28.31;62.71
64544;BME280;50936;51.660;5.616;2023-05-22T12:45:13;101122.00;;;28.45;63.65
64544;BME280;50936;51.660;5.616;2023-05-22T12:47:40;101116.47;;;28.58;62.13
64544;BME280;50936;51.660;5.616;2023-05-22T12:50:07;101110.22;;;28.63;62.54
64544;BME280;50936;51.660;5.616;2023-05-22T12:52:34;101123.22;;;28.75;61.44
64544;BME280;50936;51.660;5.616;2023-05-22T12:55:02;101110.59;;;28.79;61.83
64544;BME280;50936;51.660;5.616;2023-05-22T12:57:29;101126.28;;;29.06;59.85
64544;BME280;50936;51.660;5.616;2023-05-22T12:59:56;101121.84;;;29.36;59.09
64544;BME280;50936;51.660;5.616;2023-05-22T13:02:23;101118.66;;;29.33;59.27
64544;BME280;50936;51.660;5.616;2023-05-22T13:04:50;101117.84;;;29.26;58.36
64544;BME280;50936;51.660;5.616;2023-05-22T13:07:17;101113.56;;;28.85;59.39
64544;BME280;50936;51.660;5.616;2023-05-22T13:09:44;101109.31;;;28.75;61.68
64544;BME280;50936;51.660;5.616;2023-05-22T13:12:11;101117.75;;;29.01;59.54
64544;BME280;50936;51.660;5.616;2023-05-22T13:14:38;101115.28;;;28.79;59.36